^^
Station Historical Data
Daily Summary for May 27, 2017 Units:  English    Metric   Both
« Previous Day
Next Day »
Daily Weekly Monthly Yearly Custom
  High: Low: Average:
Temperature: 72.4 °F 53.6 °F 63.7 °F
Dew Point: 57.6 °F 50.4 °F 54.7 °F
Humidity: 91 % 54 % 74 %
Wind Speed: 6.1 mph 0.0 mph 0.8 mph
Wind Gust: 11.5 mph - -
Wind:- - WSW
Pressure: 29.92 in 29.85 in -
Precipitation: 0.00 in    
Historical Graphs
 
 
Tabular Data for May 27, 2017
Time Temperature Dew Point Pressure Wind Wind Speed Wind Gust Humidity Rainfall Rate (Hourly) solar Conditions
00:03 59.9 °F 56.3 °F 29.86 in Calm     88 % 0.00 in 0.0 W/m2 RA
00:08 59.9 °F 56.3 °F 29.86 in Calm     88 % 0.00 in 0.0 W/m2 RA
00:13 59.6 °F 56.0 °F 29.86 in Calm     88 % 0.00 in 0.0 W/m2 BKN
00:18 59.6 °F 56.4 °F 29.86 in Calm     89 % 0.00 in 0.0 W/m2 BKN
00:23 59.5 °F 56.3 °F 29.86 in Calm     89 % 0.00 in 0.0 W/m2 BKN
00:28 59.4 °F 56.2 °F 29.86 in Calm     89 % 0.00 in 0.0 W/m2 BKN
00:33 59.0 °F 55.8 °F 29.85 in Calm     89 % 0.00 in 0.0 W/m2 BKN
00:38 58.6 °F 55.7 °F 29.85 in Calm     90 % 0.00 in 0.0 W/m2 BKN
00:43 58.3 °F 55.4 °F 29.85 in Calm     90 % 0.00 in 0.0 W/m2 BKN
00:48 58.2 °F 55.3 °F 29.85 in Calm     90 % 0.00 in 0.0 W/m2 BKN
00:53 58.1 °F 55.5 °F 29.85 in Calm     91 % 0.00 in 0.0 W/m2 BKN
00:58 58.1 °F 55.5 °F 29.86 in Calm     91 % 0.00 in 0.0 W/m2 BKN
01:04 58.1 °F 55.5 °F 29.86 in Calm     91 % 0.00 in 0.0 W/m2 FEW
01:09 58.1 °F 55.5 °F 29.86 in Calm     91 % 0.00 in 0.0 W/m2 FEW
01:14 58.0 °F 55.4 °F 29.86 in Calm   2.3 mph 91 % 0.00 in 0.0 W/m2 FEW
01:19 58.0 °F 55.4 °F 29.86 in Calm   2.3 mph 91 % 0.00 in 0.0 W/m2 FEW
01:24 57.9 °F 55.3 °F 29.86 in Calm   2.3 mph 91 % 0.00 in 0.0 W/m2 FEW
01:29 57.9 °F 55.3 °F 29.86 in Calm   2.3 mph 91 % 0.00 in 0.0 W/m2 FEW
01:34 57.9 °F 55.3 °F 29.86 in Calm   3.5 mph 91 % 0.00 in 0.0 W/m2 FEW
01:39 57.9 °F 55.3 °F 29.86 in Calm   3.5 mph 91 % 0.00 in 0.0 W/m2 FEW
01:44 57.8 °F 55.2 °F 29.86 in WSW 1.9 mph 3.5 mph 91 % 0.00 in 0.0 W/m2 FEW
01:49 57.7 °F 55.1 °F 29.86 in SSW 0.7 mph 3.5 mph 91 % 0.00 in 0.0 W/m2 FEW
01:54 57.6 °F 54.7 °F 29.86 in Calm   3.5 mph 90 % 0.00 in 0.0 W/m2 FEW
01:59 57.6 °F 54.7 °F 29.86 in SW 0.6 mph 3.5 mph 90 % 0.00 in 0.0 W/m2 FEW
02:04 57.5 °F 54.6 °F 29.86 in Calm   3.5 mph 90 % 0.00 in 0.0 W/m2 CLR
02:09 57.5 °F 54.3 °F 29.86 in WSW 0.4 mph 5.8 mph 89 % 0.00 in 0.0 W/m2 CLR
02:14 57.5 °F 54.3 °F 29.86 in WSW 0.8 mph 5.8 mph 89 % 0.00 in 0.0 W/m2 CLR
02:19 57.5 °F 54.0 °F 29.86 in SW 0.3 mph 4.6 mph 88 % 0.00 in 0.0 W/m2 CLR
02:24 57.5 °F 54.0 °F 29.86 in SSW 0.4 mph 3.5 mph 88 % 0.00 in 0.0 W/m2 CLR
02:29 57.4 °F 53.6 °F 29.86 in Calm   3.5 mph 87 % 0.00 in 0.0 W/m2 CLR
02:34 57.4 °F 53.6 °F 29.86 in WSW 0.4 mph 3.5 mph 87 % 0.00 in 0.0 W/m2 CLR
02:39 57.3 °F 53.1 °F 29.86 in Calm   2.3 mph 86 % 0.00 in 0.0 W/m2 CLR
02:44 57.3 °F 53.1 °F 29.86 in Calm   2.3 mph 86 % 0.00 in 0.0 W/m2 CLR
02:49 57.1 °F 53.0 °F 29.86 in Calm   1.2 mph 86 % 0.00 in 0.0 W/m2 CLR
02:54 57.0 °F 52.9 °F 29.86 in SW 0.2 mph 1.2 mph 86 % 0.00 in 0.0 W/m2 CLR
02:59 56.7 °F 52.6 °F 29.86 in Calm   1.2 mph 86 % 0.00 in 0.0 W/m2 CLR
03:04 56.6 °F 52.5 °F 29.86 in Calm   1.2 mph 86 % 0.00 in 0.0 W/m2 CLR
03:09 56.5 °F 52.7 °F 29.87 in Calm     87 % 0.00 in 0.0 W/m2 CLR
03:14 56.3 °F 52.2 °F 29.87 in Calm     86 % 0.00 in 0.0 W/m2 CLR
03:19 56.0 °F 52.2 °F 29.87 in Calm     87 % 0.00 in 0.0 W/m2 CLR
03:24 55.8 °F 52.0 °F 29.87 in Calm     87 % 0.00 in 0.0 W/m2 CLR
03:29 55.9 °F 52.1 °F 29.88 in Calm     87 % 0.00 in 0.0 W/m2 CLR
03:34 55.9 °F 52.1 °F 29.88 in Calm     87 % 0.00 in 0.0 W/m2 CLR
03:39 55.8 °F 52.0 °F 29.88 in Calm     87 % 0.00 in 0.0 W/m2 CLR
03:44 55.7 °F 51.9 °F 29.89 in Calm     87 % 0.00 in 0.0 W/m2 CLR
03:49 55.5 °F 51.7 °F 29.89 in Calm     87 % 0.00 in 0.0 W/m2 CLR
03:54 55.6 °F 51.8 °F 29.88 in Calm     87 % 0.00 in 0.0 W/m2 CLR
03:59 55.7 °F 51.9 °F 29.88 in Calm   1.2 mph 87 % 0.00 in 0.0 W/m2 CLR
04:04 55.6 °F 51.8 °F 29.88 in Calm   1.2 mph 87 % 0.00 in 0.0 W/m2 CLR
04:09 55.6 °F 51.8 °F 29.88 in Calm     87 % 0.00 in 0.0 W/m2 CLR
04:14 55.7 °F 51.9 °F 29.88 in Calm   2.3 mph 87 % 0.00 in 0.0 W/m2 CLR
04:19 55.6 °F 51.5 °F 29.88 in Calm   2.3 mph 86 % 0.00 in 0.0 W/m2 CLR
04:24 55.3 °F 51.2 °F 29.88 in Calm     86 % 0.00 in 0.0 W/m2 CLR
04:29 55.0 °F 51.2 °F 29.89 in Calm     87 % 0.00 in 0.0 W/m2 CLR
04:34 54.9 °F 51.1 °F 29.89 in Calm     87 % 0.00 in 0.0 W/m2 CLR
04:39 54.6 °F 50.8 °F 29.89 in Calm     87 % 0.00 in 0.0 W/m2 CLR
04:44 54.5 °F 51.0 °F 29.89 in Calm     88 % 0.00 in 0.0 W/m2 CLR
04:49 54.4 °F 50.9 °F 29.89 in Calm     88 % 0.00 in 0.0 W/m2 CLR
04:54 54.4 °F 50.9 °F 29.89 in Calm     88 % 0.00 in 0.0 W/m2 CLR
04:59 54.1 °F 50.6 °F 29.89 in Calm     88 % 0.00 in 0.0 W/m2 CLR
05:04 54.0 °F 50.8 °F 29.89 in Calm     89 % 0.00 in 0.0 W/m2 BKN
05:09 54.2 °F 51.0 °F 29.88 in Calm     89 % 0.00 in 0.0 W/m2 BKN
05:14 54.1 °F 50.9 °F 29.89 in Calm     89 % 0.00 in 0.0 W/m2 BKN
05:19 54.0 °F 50.8 °F 29.89 in Calm     89 % 0.00 in 0.0 W/m2 BKN
05:24 54.1 °F 50.9 °F 29.89 in Calm     89 % 0.00 in 0.0 W/m2 BKN
05:29 54.2 °F 51.0 °F 29.89 in Calm     89 % 0.00 in 0.0 W/m2 BKN
05:34 54.2 °F 51.0 °F 29.89 in Calm     89 % 0.00 in 0.0 W/m2 BKN
05:39 54.2 °F 51.0 °F 29.89 in Calm     89 % 0.00 in 0.0 W/m2 BKN
05:44 53.8 °F 50.6 °F 29.90 in Calm     89 % 0.00 in 5.0 W/m2 BKN
05:49 53.7 °F 50.5 °F 29.90 in Calm     89 % 0.00 in 7.0 W/m2 BKN
05:54 53.6 °F 50.4 °F 29.90 in Calm     89 % 0.00 in 9.0 W/m2 BKN
05:59 53.8 °F 50.9 °F 29.90 in Calm   1.2 mph 90 % 0.00 in 11.0 W/m2 BKN
06:04 53.9 °F 51.0 °F 29.90 in Calm   1.2 mph 90 % 0.00 in 12.0 W/m2 CLR
06:09 54.0 °F 50.8 °F 29.90 in SW 1.6 mph 3.5 mph 89 % 0.00 in 12.0 W/m2 CLR
06:14 54.2 °F 51.0 °F 29.90 in Calm   3.5 mph 89 % 0.00 in 14.0 W/m2 CLR
06:20 54.3 °F 51.1 °F 29.90 in WSW 0.1 mph 3.5 mph 89 % 0.00 in 16.0 W/m2 CLR
06:25 54.5 °F 51.4 °F 29.90 in WSW 1.0 mph 5.0 mph 89 % 0.00 in 18.0 W/m2 CLR
06:30 54.8 °F 51.6 °F 29.90 in WSW 0.4 mph 4.6 mph 89 % 0.00 in 19.0 W/m2 CLR
06:35 54.9 °F 51.7 °F 29.90 in Calm   3.5 mph 89 % 0.00 in 19.0 W/m2 CLR
06:40 55.2 °F 51.7 °F 29.90 in Calm   3.5 mph 88 % 0.00 in 21.0 W/m2 CLR
06:45 55.4 °F 51.9 °F 29.90 in Calm   1.2 mph 88 % 0.00 in 21.0 W/m2 CLR
06:50 55.6 °F 51.8 °F 29.90 in West 1.0 mph 2.3 mph 87 % 0.00 in 23.0 W/m2 CLR
06:55 55.8 °F 52.0 °F 29.90 in Calm   3.5 mph 87 % 0.00 in 25.0 W/m2 CLR
07:00 56.1 °F 52.3 °F 29.90 in WSW 0.8 mph 3.5 mph 87 % 0.00 in 25.0 W/m2 CLR
07:05 56.5 °F 52.7 °F 29.90 in Calm   3.5 mph 87 % 0.00 in 26.0 W/m2 CLR
07:10 56.7 °F 52.6 °F 29.89 in Calm   3.5 mph 86 % 0.00 in 26.0 W/m2 CLR
07:15 56.9 °F 52.8 °F 29.89 in Calm     86 % 0.00 in 28.0 W/m2 CLR
07:20 57.2 °F 52.7 °F 29.90 in Calm   1.2 mph 85 % 0.00 in 28.0 W/m2 CLR
07:25 57.3 °F 52.8 °F 29.89 in Calm   1.2 mph 85 % 0.00 in 30.0 W/m2 CLR
07:30 57.4 °F 52.9 °F 29.89 in Calm   2.3 mph 85 % 0.00 in 97.0 W/m2 CLR
07:35 57.6 °F 52.8 °F 29.89 in Calm   2.3 mph 84 % 0.00 in 35.0 W/m2 CLR
07:40 58.0 °F 53.2 °F 29.90 in Calm   1.2 mph 84 % 0.00 in 37.0 W/m2 CLR
07:45 58.5 °F 53.7 °F 29.90 in WSW 2.4 mph 6.9 mph 84 % 0.00 in 33.0 W/m2 CLR
07:50 58.8 °F 54.0 °F 29.90 in Calm   6.9 mph 84 % 0.00 in 40.0 W/m2 CLR
07:55 59.1 °F 53.9 °F 29.90 in WSW 2.4 mph 6.9 mph 83 % 0.00 in 54.0 W/m2 CLR
08:00 59.3 °F 53.8 °F 29.90 in WSW 0.2 mph 6.9 mph 82 % 0.00 in 47.0 W/m2 CLR
08:05 59.5 °F 54.0 °F 29.90 in WSW 0.7 mph 4.6 mph 82 % 0.00 in 40.0 W/m2 CLR
08:10 59.9 °F 54.4 °F 29.90 in Calm   3.5 mph 82 % 0.00 in 49.0 W/m2 CLR
08:15 60.2 °F 54.3 °F 29.90 in WSW 3.8 mph 6.9 mph 81 % 0.00 in 76.0 W/m2 CLR
08:20 60.5 °F 54.3 °F 29.90 in WSW 3.9 mph 6.9 mph 80 % 0.00 in 93.0 W/m2 CLR
08:25 60.8 °F 54.6 °F 29.90 in WSW 3.1 mph 6.9 mph 80 % 0.00 in 149.0 W/m2 CLR
08:30 61.2 °F 54.6 °F 29.90 in SW 2.4 mph 8.1 mph 79 % 0.00 in 179.0 W/m2 CLR
08:35 62.0 °F 55.1 °F 29.91 in WSW 2.4 mph 8.1 mph 78 % 0.00 in 130.0 W/m2 CLR
08:40 62.0 °F 55.1 °F 29.91 in WSW 1.4 mph 8.1 mph 78 % 0.00 in 91.0 W/m2 CLR
08:45 62.1 °F 55.2 °F 29.91 in SW 2.1 mph 6.9 mph 78 % 0.00 in 60.0 W/m2 CLR
08:50 62.2 °F 55.3 °F 29.91 in WSW 3.1 mph 6.9 mph 78 % 0.00 in 51.0 W/m2 CLR
08:55 62.3 °F 55.4 °F 29.91 in WSW 3.9 mph 6.9 mph 78 % 0.00 in 49.0 W/m2 CLR
09:00 62.9 °F 55.9 °F 29.91 in Calm   8.1 mph 78 % 0.00 in 58.0 W/m2 CLR
09:05 63.2 °F 55.9 °F 29.91 in WSW 1.6 mph 8.1 mph 77 % 0.00 in 120.0 W/m2 CLR
09:10 63.4 °F 55.7 °F 29.91 in SW 2.6 mph 6.9 mph 76 % 0.00 in 610.0 W/m2 CLR
09:15 63.5 °F 55.8 °F 29.90 in SW 3.1 mph 9.2 mph 76 % 0.00 in 626.0 W/m2 CLR
09:20 64.0 °F 55.9 °F 29.90 in SW 3.4 mph 9.2 mph 75 % 0.00 in 640.0 W/m2 CLR
09:25 64.3 °F 55.8 °F 29.90 in WNW 1.4 mph 9.2 mph 74 % 0.00 in 684.0 W/m2 CLR
09:30 65.0 °F 56.1 °F 29.90 in WSW 0.5 mph 9.2 mph 73 % 0.00 in 671.0 W/m2 CLR
09:35 64.9 °F 55.7 °F 29.90 in WSW 5.4 mph 9.2 mph 72 % 0.00 in 708.0 W/m2 CLR
09:40 65.2 °F 55.9 °F 29.90 in WSW 4.0 mph 11.5 mph 72 % 0.00 in 383.0 W/m2 CLR
09:45 65.3 °F 56.0 °F 29.90 in WNW 2.5 mph 11.5 mph 72 % 0.00 in 415.0 W/m2 CLR
09:50 65.8 °F 56.5 °F 29.90 in Calm   10.4 mph 72 % 0.00 in 967.0 W/m2 CLR
09:55 66.0 °F 55.9 °F 29.90 in WSW 1.3 mph 6.9 mph 70 % 0.00 in 427.0 W/m2 CLR
10:00 66.3 °F 56.2 °F 29.90 in West 0.8 mph 4.6 mph 70 % 0.00 in 912.0 W/m2 CLR
10:06 67.4 °F 56.1 °F 29.90 in NNW 2.2 mph 8.1 mph 67 % 0.00 in 846.0 W/m2 FEW
10:11 67.5 °F 56.2 °F 29.90 in SSW 0.1 mph 8.1 mph 67 % 0.00 in 846.0 W/m2 FEW
10:16 66.7 °F 55.4 °F 29.90 in WSW 1.7 mph 6.9 mph 67 % 0.00 in 313.0 W/m2 FEW
10:21 67.1 °F 56.2 °F 29.90 in SW 4.2 mph 6.9 mph 68 % 0.00 in 984.0 W/m2 FEW
10:26 67.6 °F 56.7 °F 29.90 in North 2.7 mph 6.9 mph 68 % 0.00 in 963.0 W/m2 FEW
10:31 68.6 °F 57.6 °F 29.89 in WSW 1.5 mph 6.9 mph 68 % 0.00 in 1065.0 W/m2 FEW
10:36 68.2 °F 56.0 °F 29.90 in West 5.2 mph 8.1 mph 65 % 0.00 in 480.0 W/m2 FEW
10:41 67.4 °F 55.6 °F 29.90 in Calm   8.1 mph 66 % 0.00 in 223.0 W/m2 FEW
10:46 67.1 °F 55.4 °F 29.90 in Calm   8.1 mph 66 % 0.00 in 343.0 W/m2 FEW
10:51 67.4 °F 56.1 °F 29.89 in South 1.2 mph 3.5 mph 67 % 0.00 in 315.0 W/m2 FEW
10:56 67.2 °F 55.9 °F 29.89 in SSW 2.1 mph 5.8 mph 67 % 0.00 in 373.0 W/m2 FEW
11:01 67.2 °F 56.3 °F 29.89 in West 0.2 mph 5.8 mph 68 % 0.00 in 373.0 W/m2 FEW
11:06 67.9 °F 55.7 °F 29.89 in NW 1.2 mph 5.8 mph 65 % 0.00 in 805.0 W/m2 FEW
11:11 68.5 °F 56.3 °F 29.89 in Calm   4.6 mph 65 % 0.00 in 926.0 W/m2 FEW
11:16 68.8 °F 56.6 °F 29.89 in WNW 1.8 mph 4.6 mph 65 % 0.00 in 381.0 W/m2 FEW
11:21 69.2 °F 56.1 °F 29.90 in NW 2.5 mph 6.9 mph 63 % 0.00 in 404.0 W/m2 FEW
11:26 69.4 °F 55.4 °F 29.90 in NW 2.1 mph 9.2 mph 61 % 0.00 in 480.0 W/m2 FEW
11:31 69.0 °F 55.0 °F 29.90 in Calm   9.2 mph 61 % 0.00 in 360.0 W/m2 FEW
11:36 68.4 °F 55.7 °F 29.89 in Calm   9.2 mph 64 % 0.00 in 362.0 W/m2 FEW
11:41 68.9 °F 56.6 °F 29.89 in NW 0.1 mph 3.5 mph 65 % 0.00 in 367.0 W/m2 FEW
11:46 69.0 °F 55.9 °F 29.90 in Calm   4.6 mph 63 % 0.00 in 515.0 W/m2 FEW
11:51 69.1 °F 55.5 °F 29.90 in Calm   4.6 mph 62 % 0.00 in 679.0 W/m2 FEW
11:56 70.2 °F 57.0 °F 29.90 in West 0.6 mph 5.8 mph 63 % 0.00 in 671.0 W/m2 FEW
12:01 69.3 °F 56.2 °F 29.89 in Calm   6.9 mph 63 % 0.00 in 469.0 W/m2 BKN
12:06 69.3 °F 56.2 °F 29.89 in WSW 0.4 mph 8.1 mph 63 % 0.00 in 320.0 W/m2 BKN
12:12 68.5 °F 55.0 °F 29.89 in Calm   8.1 mph 62 % 0.00 in 244.0 W/m2 BKN
12:17 68.5 °F 55.8 °F 29.89 in WNW 2.9 mph 6.9 mph 64 % 0.00 in 221.0 W/m2 BKN
12:22 68.9 °F 54.9 °F 29.89 in NW 0.9 mph 6.9 mph 61 % 0.00 in 195.0 W/m2 BKN
12:27 68.2 °F 55.1 °F 29.89 in Calm   6.9 mph 63 % 0.00 in 176.0 W/m2 BKN
12:32 68.2 °F 55.6 °F 29.90 in Calm   3.5 mph 64 % 0.00 in 178.0 W/m2 BKN
12:37 67.7 °F 55.9 °F 29.90 in SW 0.9 mph 3.5 mph 66 % 0.00 in 200.0 W/m2 BKN
12:42 67.6 °F 56.7 °F 29.90 in Calm   3.5 mph 68 % 0.00 in 221.0 W/m2 BKN
12:48 67.6 °F 57.5 °F 29.90 in Calm   3.5 mph 70 % 0.00 in 345.0 W/m2 BKN
12:53 67.7 °F 57.6 °F 29.90 in WNW 1.2 mph 3.5 mph 70 % 0.00 in 369.0 W/m2 BKN
12:58 68.0 °F 56.6 °F 29.90 in Calm   8.1 mph 67 % 0.00 in 508.0 W/m2 BKN
13:03 68.4 °F 57.0 °F 29.90 in NNW 0.9 mph 8.1 mph 67 % 0.00 in 469.0 W/m2 SCT
13:08 69.0 °F 56.7 °F 29.90 in NW 0.1 mph 8.1 mph 65 % 0.00 in 555.0 W/m2 SCT
13:13 69.2 °F 56.9 °F 29.89 in NW 2.4 mph 8.1 mph 65 % 0.00 in 515.0 W/m2 SCT
13:18 69.1 °F 56.8 °F 29.89 in NW 2.2 mph 6.9 mph 65 % 0.00 in 383.0 W/m2 SCT
13:23 69.1 °F 56.4 °F 29.89 in WNW 0.1 mph 6.9 mph 64 % 0.00 in 330.0 W/m2 SCT
13:28 68.8 °F 56.6 °F 29.89 in Calm   5.8 mph 65 % 0.00 in 339.0 W/m2 SCT
13:29 68.7 °F 56.5 °F 29.89 in Calm   5.8 mph 65 % 0.00 in 369.0 W/m2 SCT
13:34 68.6 °F 56.4 °F 29.89 in Calm   3.5 mph 65 % 0.00 in 394.0 W/m2 SCT
13:40 68.8 °F 56.6 °F 29.89 in West 2.6 mph 8.1 mph 65 % 0.00 in 271.0 W/m2 SCT
13:45 69.0 °F 56.7 °F 29.88 in NW 1.7 mph 8.1 mph 65 % 0.00 in 218.0 W/m2 SCT
13:50 68.7 °F 56.5 °F 29.88 in West 2.0 mph 10.0 mph 65 % 0.00 in 206.0 W/m2 SCT
13:55 68.5 °F 56.7 °F 29.89 in Calm   5.0 mph 66 % 0.00 in 179.0 W/m2 SCT
14:00 68.5 °F 56.7 °F 29.89 in West 0.2 mph 4.6 mph 66 % 0.00 in 153.0 W/m2 SCT
14:05 68.4 °F 56.6 °F 29.89 in WNW 3.8 mph 9.2 mph 66 % 0.00 in 128.0 W/m2 -RA
14:10 68.4 °F 56.6 °F 29.89 in WNW 2.0 mph 10.0 mph 66 % 0.00 in 153.0 W/m2 -RA
14:15 68.2 °F 56.4 °F 29.89 in WNW 1.0 mph 10.4 mph 66 % 0.00 in 167.0 W/m2 -RA
14:20 68.4 °F 57.0 °F 29.89 in Calm   10.4 mph 67 % 0.00 in 186.0 W/m2 -RA
14:25 68.3 °F 56.5 °F 29.89 in WNW 1.3 mph 6.9 mph 66 % 0.00 in 179.0 W/m2 -RA
14:30 68.2 °F 56.8 °F 29.89 in WSW 1.3 mph 6.9 mph 67 % 0.00 in 174.0 W/m2 -RA
14:35 68.0 °F 56.6 °F 29.89 in Calm   9.2 mph 67 % 0.00 in 178.0 W/m2 -RA
14:40 68.0 °F 56.6 °F 29.89 in West 0.4 mph 9.2 mph 67 % 0.00 in 207.0 W/m2 -RA
14:45 68.0 °F 56.6 °F 29.89 in Calm   3.5 mph 67 % 0.00 in 257.0 W/m2 -RA
14:50 68.3 °F 57.3 °F 29.89 in WNW 2.8 mph 8.1 mph 68 % 0.00 in 338.0 W/m2 -RA
14:55 68.6 °F 57.2 °F 29.89 in Calm   8.1 mph 67 % 0.00 in 429.0 W/m2 -RA
15:00 69.0 °F 57.2 °F 29.89 in WNW 3.1 mph 8.1 mph 66 % 0.00 in 462.0 W/m2 -RA
15:05 68.9 °F 57.5 °F 29.89 in WNW 1.5 mph 10.4 mph 67 % 0.00 in 624.0 W/m2 CLR
15:10 69.3 °F 57.0 °F 29.89 in NW 1.8 mph 10.4 mph 65 % 0.00 in 443.0 W/m2 CLR
15:15 69.3 °F 56.6 °F 29.89 in South 1.2 mph 6.9 mph 64 % 0.00 in 543.0 W/m2 CLR
15:20 69.7 °F 57.0 °F 29.89 in WSW 1.7 mph 8.1 mph 64 % 0.00 in 900.0 W/m2 CLR
15:25 70.2 °F 57.0 °F 29.89 in SW 3.1 mph 10.4 mph 63 % 0.00 in 960.0 W/m2 CLR
15:30 69.9 °F 56.7 °F 29.89 in West 3.0 mph 10.4 mph 63 % 0.00 in 443.0 W/m2 CLR
15:35 69.9 °F 56.7 °F 29.88 in WNW 2.8 mph 10.4 mph 63 % 0.00 in 1018.0 W/m2 CLR
15:40 70.1 °F 56.5 °F 29.88 in WSW 0.4 mph 9.2 mph 62 % 0.00 in 803.0 W/m2 CLR
15:45 70.1 °F 56.0 °F 29.88 in West 2.6 mph 9.2 mph 61 % 0.00 in 378.0 W/m2 CLR
15:50 70.2 °F 56.1 °F 29.88 in West 1.8 mph 8.1 mph 61 % 0.00 in 875.0 W/m2 CLR
15:55 70.9 °F 56.3 °F 29.88 in West 4.0 mph 8.1 mph 60 % 0.00 in 860.0 W/m2 CLR
16:00 71.1 °F 57.0 °F 29.88 in WSW 3.2 mph 8.1 mph 61 % 0.00 in 877.0 W/m2 CLR
16:05 70.7 °F 56.1 °F 29.88 in WSW 0.1 mph 8.1 mph 60 % 0.00 in 693.0 W/m2 CLR
16:10 71.1 °F 56.5 °F 29.88 in West 3.4 mph 8.1 mph 60 % 0.00 in 744.0 W/m2 CLR
16:15 71.2 °F 56.1 °F 29.88 in WNW 0.7 mph 8.1 mph 59 % 0.00 in 715.0 W/m2 CLR
16:20 71.6 °F 56.0 °F 29.88 in SW 4.0 mph 9.2 mph 58 % 0.00 in 712.0 W/m2 CLR
16:25 71.3 °F 56.7 °F 29.88 in SSW 3.3 mph 9.2 mph 60 % 0.00 in 686.0 W/m2 CLR
16:30 71.0 °F 55.5 °F 29.88 in WSW 1.1 mph 9.2 mph 58 % 0.00 in 659.0 W/m2 CLR
16:35 71.6 °F 55.1 °F 29.88 in SW 5.5 mph 9.2 mph 56 % 0.00 in 615.0 W/m2 CLR
16:40 71.1 °F 55.1 °F 29.88 in SSW 2.6 mph 9.2 mph 57 % 0.00 in 664.0 W/m2 CLR
16:45 71.0 °F 55.0 °F 29.88 in WNW 0.8 mph 9.2 mph 57 % 0.00 in 359.0 W/m2 CLR
16:50 71.2 °F 55.7 °F 29.88 in WSW 1.1 mph 6.9 mph 58 % 0.00 in 330.0 W/m2 CLR
16:55 71.1 °F 54.6 °F 29.88 in SW 2.5 mph 8.1 mph 56 % 0.00 in 559.0 W/m2 CLR
17:00 71.4 °F 55.4 °F 29.88 in Calm   8.1 mph 57 % 0.00 in 603.0 W/m2 CLR
17:05 71.6 °F 55.1 °F 29.88 in SW 3.2 mph 6.9 mph 56 % 0.00 in 513.0 W/m2 CLR
17:10 71.6 °F 55.6 °F 29.88 in West 4.2 mph 6.9 mph 57 % 0.00 in 381.0 W/m2 CLR
17:15 71.8 °F 55.3 °F 29.88 in Calm   8.1 mph 56 % 0.00 in 485.0 W/m2 CLR
17:20 72.1 °F 55.0 °F 29.88 in WSW 2.8 mph 8.1 mph 55 % 0.00 in 468.0 W/m2 CLR
17:25 72.2 °F 54.6 °F 29.88 in WSW 1.3 mph 4.6 mph 54 % 0.00 in 162.0 W/m2 CLR
17:30 71.9 °F 54.3 °F 29.88 in West 0.4 mph 8.1 mph 54 % 0.00 in 552.0 W/m2 CLR
17:35 72.1 °F 54.5 °F 29.88 in Calm   8.1 mph 54 % 0.00 in 533.0 W/m2 CLR
17:40 72.1 °F 54.5 °F 29.88 in SW 2.5 mph 6.9 mph 54 % 0.00 in 526.0 W/m2 CLR
17:45 72.4 °F 54.8 °F 29.88 in SW 3.0 mph 6.9 mph 54 % 0.00 in 450.0 W/m2 CLR
17:50 72.3 °F 55.7 °F 29.88 in Calm   6.9 mph 56 % 0.00 in 285.0 W/m2 CLR
17:55 72.1 °F 55.5 °F 29.88 in SSW 6.1 mph 10.4 mph 56 % 0.00 in 302.0 W/m2 CLR
18:00 71.3 °F 54.8 °F 29.87 in West 2.0 mph 10.4 mph 56 % 0.00 in 127.0 W/m2 CLR
18:05 71.0 °F 54.5 °F 29.87 in Calm   10.4 mph 56 % 0.00 in 91.0 W/m2 SCT
18:10 70.7 °F 54.7 °F 29.88 in Calm   6.9 mph 57 % 0.00 in 121.0 W/m2 SCT
18:15 70.6 °F 55.1 °F 29.87 in SSW 0.4 mph 3.5 mph 58 % 0.00 in 214.0 W/m2 SCT
18:20 71.0 °F 55.0 °F 29.87 in Calm   3.5 mph 57 % 0.00 in 243.0 W/m2 SCT
18:25 71.1 °F 55.1 °F 29.87 in SW 1.3 mph 3.5 mph 57 % 0.00 in 339.0 W/m2 SCT
18:30 71.4 °F 55.4 °F 29.87 in WSW 0.9 mph 3.5 mph 57 % 0.00 in 367.0 W/m2 SCT
18:36 71.5 °F 55.5 °F 29.87 in South 2.2 mph 3.5 mph 57 % 0.00 in 345.0 W/m2 SCT
18:41 71.7 °F 54.7 °F 29.87 in Calm   5.8 mph 55 % 0.00 in 325.0 W/m2 SCT
18:46 71.6 °F 54.6 °F 29.87 in SW 0.7 mph 5.8 mph 55 % 0.00 in 283.0 W/m2 SCT
18:51 71.5 °F 54.0 °F 29.87 in SSW 1.4 mph 6.9 mph 54 % 0.00 in 241.0 W/m2 SCT
18:56 71.5 °F 54.0 °F 29.87 in Calm   6.9 mph 54 % 0.00 in 204.0 W/m2 SCT
19:01 71.4 °F 54.4 °F 29.87 in South 0.7 mph 5.8 mph 55 % 0.00 in 176.0 W/m2 SCT
19:06 71.3 °F 54.3 °F 29.87 in WSW 0.8 mph 6.9 mph 55 % 0.00 in 148.0 W/m2 CLR
19:11 71.3 °F 54.3 °F 29.87 in Calm   6.9 mph 55 % 0.00 in 125.0 W/m2 CLR
19:16 71.4 °F 54.4 °F 29.87 in Calm   3.5 mph 55 % 0.00 in 105.0 W/m2 CLR
19:21 71.3 °F 53.8 °F 29.87 in Calm   3.5 mph 54 % 0.00 in 90.0 W/m2 CLR
19:26 71.1 °F 54.6 °F 29.87 in West 0.5 mph 3.5 mph 56 % 0.00 in 60.0 W/m2 CLR
19:31 70.9 °F 54.4 °F 29.87 in Calm   3.5 mph 56 % 0.00 in 35.0 W/m2 CLR
19:36 70.8 °F 54.3 °F 29.87 in NW 0.5 mph 3.5 mph 56 % 0.00 in 33.0 W/m2 CLR
19:41 70.7 °F 54.2 °F 29.86 in Calm   3.5 mph 56 % 0.00 in 30.0 W/m2 CLR
19:46 70.6 °F 54.1 °F 29.87 in Calm   3.5 mph 56 % 0.00 in 28.0 W/m2 CLR
19:51 70.5 °F 54.5 °F 29.87 in Calm   2.3 mph 57 % 0.00 in 25.0 W/m2 CLR
19:56 70.3 °F 54.3 °F 29.87 in Calm   2.3 mph 57 % 0.00 in 21.0 W/m2 CLR
20:01 70.1 °F 54.2 °F 29.87 in Calm     57 % 0.00 in 19.0 W/m2 CLR
20:06 69.9 °F 54.4 °F 29.88 in Calm     58 % 0.00 in 14.0 W/m2 CLR
20:11 69.5 °F 54.5 °F 29.88 in Calm     59 % 0.00 in 9.0 W/m2 CLR
20:16 69.4 °F 54.4 °F 29.88 in Calm     59 % 0.00 in 7.0 W/m2 CLR
20:21 69.0 °F 54.5 °F 29.89 in Calm     60 % 0.00 in 5.0 W/m2 CLR
20:26 68.8 °F 54.8 °F 29.89 in Calm     61 % 0.00 in 0.0 W/m2 CLR
20:31 68.6 °F 54.6 °F 29.89 in Calm     61 % 0.00 in 0.0 W/m2 CLR
20:36 68.5 °F 54.5 °F 29.89 in Calm     61 % 0.00 in 0.0 W/m2 CLR
20:41 68.1 °F 55.0 °F 29.89 in Calm     63 % 0.00 in 0.0 W/m2 CLR
20:46 67.6 °F 55.0 °F 29.89 in Calm     64 % 0.00 in 0.0 W/m2 CLR
20:51 67.0 °F 55.3 °F 29.89 in Calm     66 % 0.00 in 0.0 W/m2 CLR
20:57 66.1 °F 54.8 °F 29.89 in Calm     67 % 0.00 in 0.0 W/m2 CLR
21:02 65.9 °F 55.0 °F 29.89 in Calm     68 % 0.00 in 0.0 W/m2 BKN
21:07 65.3 °F 54.9 °F 29.90 in Calm     69 % 0.00 in 0.0 W/m2 BKN
21:12 65.3 °F 55.3 °F 29.90 in Calm     70 % 0.00 in 0.0 W/m2 BKN
21:17 65.2 °F 55.2 °F 29.90 in Calm     70 % 0.00 in 0.0 W/m2 BKN
21:22 64.8 °F 55.6 °F 29.90 in Calm     72 % 0.00 in 0.0 W/m2 BKN
21:27 64.4 °F 55.2 °F 29.90 in Calm     72 % 0.00 in 0.0 W/m2 BKN
21:32 64.1 °F 55.3 °F 29.90 in Calm     73 % 0.00 in 0.0 W/m2 BKN
21:37 64.0 °F 55.2 °F 29.90 in Calm     73 % 0.00 in 0.0 W/m2 BKN
21:42 64.0 °F 55.5 °F 29.90 in Calm     74 % 0.00 in 0.0 W/m2 BKN
21:47 63.6 °F 55.2 °F 29.90 in Calm     74 % 0.00 in 0.0 W/m2 BKN
21:52 63.0 °F 54.9 °F 29.90 in Calm     75 % 0.00 in 0.0 W/m2 BKN
21:57 62.8 °F 55.1 °F 29.90 in Calm     76 % 0.00 in 0.0 W/m2 BKN
22:02 62.9 °F 55.6 °F 29.90 in Calm     77 % 0.00 in 0.0 W/m2 FEW
22:07 62.8 °F 55.5 °F 29.91 in Calm     77 % 0.00 in 0.0 W/m2 FEW
22:12 62.7 °F 55.4 °F 29.90 in Calm     77 % 0.00 in 0.0 W/m2 FEW
22:17 62.4 °F 55.4 °F 29.90 in Calm     78 % 0.00 in 0.0 W/m2 FEW
22:22 62.1 °F 55.2 °F 29.90 in Calm     78 % 0.00 in 0.0 W/m2 FEW
22:27 61.8 °F 55.2 °F 29.90 in Calm     79 % 0.00 in 0.0 W/m2 FEW
22:32 61.5 °F 55.3 °F 29.90 in Calm     80 % 0.00 in 0.0 W/m2 FEW
22:37 61.3 °F 55.1 °F 29.90 in Calm     80 % 0.00 in 0.0 W/m2 FEW
22:42 61.1 °F 55.2 °F 29.90 in Calm     81 % 0.00 in 0.0 W/m2 FEW
22:47 60.9 °F 55.0 °F 29.90 in Calm     81 % 0.00 in 0.0 W/m2 FEW
22:52 60.8 °F 55.3 °F 29.90 in Calm     82 % 0.00 in 0.0 W/m2 FEW
22:57 60.6 °F 55.1 °F 29.91 in Calm     82 % 0.00 in 0.0 W/m2 FEW
23:02 60.6 °F 55.1 °F 29.91 in Calm     82 % 0.00 in 0.0 W/m2 CLR
23:07 60.2 °F 55.0 °F 29.91 in Calm     83 % 0.00 in 0.0 W/m2 CLR
23:12 60.0 °F 54.8 °F 29.91 in Calm     83 % 0.00 in 0.0 W/m2 CLR
23:17 59.9 °F 55.1 °F 29.91 in Calm     84 % 0.00 in 0.0 W/m2 CLR
23:22 59.8 °F 55.0 °F 29.92 in Calm     84 % 0.00 in 0.0 W/m2 CLR
23:27 59.6 °F 54.8 °F 29.91 in Calm     84 % 0.00 in 0.0 W/m2 CLR
23:32 59.3 °F 54.5 °F 29.91 in Calm     84 % 0.00 in 0.0 W/m2 CLR
23:37 59.1 °F 54.6 °F 29.92 in Calm     85 % 0.00 in 0.0 W/m2 CLR
23:42 59.2 °F 55.0 °F 29.91 in Calm     86 % 0.00 in 0.0 W/m2 CLR
23:47 58.9 °F 54.4 °F 29.91 in Calm     85 % 0.00 in 0.0 W/m2 CLR
23:52 58.7 °F 54.5 °F 29.91 in Calm     86 % 0.00 in 0.0 W/m2 CLR
23:57 58.7 °F 54.5 °F 29.91 in Calm     86 % 0.00 in 0.0 W/m2 CLR
Air Products Campus Weather
Compliments of Weather Underground - 3.5 mb